Time;durP1;ratioP1;P1;durP2;ratioP2;P2;SDS_P1;SDS_P2;PMS_P1;PMS_P2;Temp;Humidity;BMP_temperature;BMP_pressure;BME280_temperature;BME280_humidity;BME280_pressure;Samples;Min_cycle;Max_cycle;Signal;HPM_P1;HPM_P2
2022/07/27 00:01:53;;;;;;;7.30;2.10;;;;;;;13.35;75.03;101818.03;4992762;28;20142;-81
2022/07/27 00:04:19;;;;;;;5.05;2.10;;;;;;;13.38;74.91;101825.06;4999408;28;20030;-82
2022/07/27 00:06:44;;;;;;;5.15;1.90;;;;;;;13.37;74.69;101826.81;5003014;28;20157;-81
2022/07/27 00:09:10;;;;;;;3.78;1.92;;;;;;;13.39;74.90;101822.28;5011211;28;20108;-82
2022/07/27 00:11:35;;;;;;;3.60;1.83;;;;;;;13.37;74.58;101823.28;4997752;28;20293;-82
2022/07/27 00:14:00;;;;;;;5.15;2.20;;;;;;;13.34;74.43;101820.78;4998320;28;20053;-82
2022/07/27 00:16:26;;;;;;;5.20;1.90;;;;;;;13.37;74.69;101820.63;5000122;28;20495;-82
2022/07/27 00:18:51;;;;;;;5.40;2.13;;;;;;;13.30;74.78;101817.38;4998115;28;20108;-82
2022/07/27 00:21:16;;;;;;;5.20;1.80;;;;;;;13.37;74.56;101828.63;5002721;28;20364;-81
2022/07/27 00:23:42;;;;;;;7.38;2.30;;;;;;;13.35;74.54;101818.03;5002603;28;20045;-82
2022/07/27 00:26:07;;;;;;;5.75;2.22;;;;;;;13.41;74.18;101817.72;5004930;28;20031;-82
2022/07/27 00:28:32;;;;;;;7.13;2.08;;;;;;;13.41;74.50;101807.03;5007834;28;20048;-81
2022/07/27 00:30:58;;;;;;;4.85;1.90;;;;;;;13.43;74.46;101817.66;4988563;28;20065;-81
2022/07/27 00:33:23;;;;;;;3.40;1.83;;;;;;;13.40;74.33;101820.47;5001003;28;20026;-80
2022/07/27 00:35:48;;;;;;;3.72;1.65;;;;;;;13.31;74.50;101810.22;4991838;28;20022;-81
2022/07/27 00:38:15;;;;;;;5.38;1.80;;;;;;;13.28;74.84;101813.91;4996888;28;20029;-81
2022/07/27 00:40:40;;;;;;;4.82;1.80;;;;;;;13.29;75.78;101818.28;4991223;28;20026;-81
2022/07/27 00:43:06;;;;;;;3.10;1.90;;;;;;;13.25;75.73;101811.38;4992533;28;20029;-81
2022/07/27 00:45:31;;;;;;;4.20;1.85;;;;;;;13.15;75.36;101823.41;4997369;28;20030;-82
2022/07/27 00:47:57;;;;;;;5.65;2.10;;;;;;;13.11;76.38;101820.00;4999231;28;20531;-82
2022/07/27 00:50:22;;;;;;;6.45;1.77;;;;;;;13.06;76.07;101819.34;5003899;28;20518;-82
2022/07/27 00:52:48;;;;;;;5.53;1.90;;;;;;;13.02;77.24;101824.91;5002442;28;20029;-83
2022/07/27 00:55:14;;;;;;;4.13;1.95;;;;;;;12.99;78.20;101817.00;4997062;28;20057;-82
2022/07/27 00:57:41;;;;;;;6.10;2.10;;;;;;;12.98;77.95;101815.28;5002003;28;20041;-80
2022/07/27 01:00:07;;;;;;;4.35;1.95;;;;;;;12.95;78.30;101814.47;4997164;28;20043;-83
2022/07/27 01:02:32;;;;;;;4.43;1.80;;;;;;;12.89;78.49;101816.56;4993688;28;20402;-81
2022/07/27 01:04:58;;;;;;;5.03;1.98;;;;;;;12.89;79.28;101817.44;5018139;28;20028;-81
2022/07/27 01:07:25;;;;;;;4.00;1.85;;;;;;;12.85;78.74;101823.84;4996904;28;20030;-81
2022/07/27 01:09:56;;;;;;;4.20;2.20;;;;;;;12.79;79.08;101821.47;4997533;28;20026;-81
2022/07/27 01:12:23;;;;;;;4.35;1.80;;;;;;;12.78;78.85;101814.38;4996082;28;20034;-82
2022/07/27 01:14:50;;;;;;;4.78;2.20;;;;;;;12.68;79.34;101807.72;5012930;28;20040;-82
2022/07/27 01:17:16;;;;;;;4.60;1.75;;;;;;;12.71;79.61;101819.13;5010703;28;20021;-81
2022/07/27 01:19:42;;;;;;;4.47;2.00;;;;;;;12.66;79.54;101821.13;4994675;28;20030;-82
2022/07/27 01:22:07;;;;;;;4.15;1.95;;;;;;;12.65;79.32;101818.53;5014769;28;20498;-82
2022/07/27 01:24:34;;;;;;;3.85;1.83;;;;;;;12.60;79.30;101809.84;4992666;28;20130;-83
2022/07/27 01:27:00;;;;;;;4.88;2.03;;;;;;;12.56;79.81;101816.25;4994691;28;20027;-82
2022/07/27 01:29:26;;;;;;;5.30;2.03;;;;;;;12.52;79.62;101810.19;5002171;28;20088;-82
2022/07/27 01:31:51;;;;;;;4.88;1.80;;;;;;;12.48;80.05;101815.72;4997273;28;20034;-82
2022/07/27 01:34:16;;;;;;;5.70;1.70;;;;;;;12.40;80.25;101811.56;5014463;28;20394;-82
2022/07/27 01:36:42;;;;;;;2.78;1.75;;;;;;;12.41;80.14;101809.75;4997427;28;20621;-82
2022/07/27 01:39:07;;;;;;;3.75;2.05;;;;;;;12.37;80.32;101811.72;4994115;28;20037;-82
2022/07/27 01:41:33;;;;;;;5.90;1.70;;;;;;;12.33;80.69;101809.22;4992212;28;20061;-82
2022/07/27 01:43:58;;;;;;;3.80;1.92;;;;;;;12.31;81.13;101806.63;4997461;28;20553;-83
2022/07/27 01:46:23;;;;;;;5.07;2.10;;;;;;;12.24;80.69;101799.81;5003283;28;20460;-82
2022/07/27 01:48:48;;;;;;;4.60;1.95;;;;;;;12.20;80.61;101800.88;5007221;28;20028;-82
2022/07/27 01:51:14;;;;;;;2.67;1.73;;;;;;;12.17;81.11;101795.69;4995114;28;20029;-82
2022/07/27 01:53:39;;;;;;;5.25;2.22;;;;;;;12.15;81.18;101797.53;4998679;28;20114;-82
2022/07/27 01:56:12;;;;;;;3.58;1.80;;;;;;;12.09;81.56;101801.34;5000975;28;20036;-82
2022/07/27 01:58:38;;;;;;;3.42;2.05;;;;;;;12.05;81.62;101796.19;4993891;28;20050;-82
2022/07/27 02:01:05;;;;;;;6.55;2.08;;;;;;;12.04;81.93;101805.13;5007735;28;20471;-82
2022/07/27 02:03:31;;;;;;;5.07;2.63;;;;;;;11.99;82.10;101802.66;4999240;28;20030;-82
2022/07/27 02:05:56;;;;;;;3.72;1.95;;;;;;;12.01;82.38;101810.59;5017477;28;20026;-82
2022/07/27 02:08:22;;;;;;;4.57;1.90;;;;;;;11.93;82.34;101809.09;5001803;28;20076;-82
2022/07/27 02:13:31;;;;;;;4.78;2.25;;;;;;;11.92;82.20;101803.84;5003785;28;20484;-82
2022/07/27 02:15:56;;;;;;;4.07;2.15;;;;;;;11.89;82.19;101801.31;5016819;28;20026;-82
2022/07/27 02:18:22;;;;;;;4.53;1.83;;;;;;;11.85;82.69;101797.88;4996751;28;20288;-82
2022/07/27 02:20:48;;;;;;;5.40;2.20;;;;;;;11.83;82.32;101793.53;5006387;28;20434;-82
2022/07/27 02:23:13;;;;;;;5.97;2.17;;;;;;;11.78;82.58;101787.50;5003507;28;20080;-80
2022/07/27 02:25:39;;;;;;;5.78;2.60;;;;;;;11.78;83.18;101799.03;5007438;28;20028;-81
2022/07/27 02:28:05;;;;;;;4.57;2.10;;;;;;;11.75;83.31;101796.50;5013466;28;20037;-81
2022/07/27 02:30:30;;;;;;;3.70;2.10;;;;;;;11.72;83.44;101794.81;5004800;28;20081;-81
2022/07/27 02:32:56;;;;;;;4.35;2.08;;;;;;;11.70;82.86;101795.78;5004486;28;20030;-81
2022/07/27 02:35:21;;;;;;;5.10;2.42;;;;;;;11.65;83.67;101789.78;5001019;28;20116;-81
2022/07/27 02:37:47;;;;;;;4.25;2.10;;;;;;;11.62;83.57;101785.47;5004889;28;20537;-81
2022/07/27 02:40:14;;;;;;;5.90;2.30;;;;;;;11.61;83.83;101786.38;5001977;28;20057;-82
2022/07/27 02:42:39;;;;;;;3.90;2.13;;;;;;;11.54;83.66;101789.38;5006570;28;20120;-81
2022/07/27 02:45:05;;;;;;;7.57;2.60;;;;;;;11.51;84.09;101784.16;5005481;28;20110;-81
2022/07/27 02:47:30;;;;;;;4.45;2.00;;;;;;;11.53;83.85;101784.94;5003100;28;20034;-82
2022/07/27 02:49:56;;;;;;;4.90;2.30;;;;;;;11.48;84.25;101785.13;5000857;28;20026;-81
2022/07/27 02:52:21;;;;;;;5.97;2.70;;;;;;;11.51;83.70;101786.81;4989608;28;20093;-81
2022/07/27 02:54:46;;;;;;;5.80;2.20;;;;;;;11.47;84.41;101786.06;5008427;28;20063;-81
2022/07/27 02:57:12;;;;;;;3.03;2.10;;;;;;;11.44;84.13;101787.03;5009717;28;20022;-82
2022/07/27 02:59:37;;;;;;;5.60;2.47;;;;;;;11.40;84.39;101787.22;5004220;28;20049;-82
2022/07/27 03:02:02;;;;;;;5.07;2.55;;;;;;;11.37;84.62;101793.56;4999120;28;20589;-81
2022/07/27 03:04:27;;;;;;;5.53;2.47;;;;;;;11.33;85.17;101785.72;4991645;28;20018;-83
2022/07/27 03:06:53;;;;;;;7.03;2.47;;;;;;;11.27;84.32;101781.50;5002128;28;20034;-82
2022/07/27 03:09:18;;;;;;;7.20;2.65;;;;;;;11.26;84.24;101793.09;5009254;28;20036;-81
2022/07/27 03:11:44;;;;;;;6.57;2.63;;;;;;;11.20;84.67;101791.56;4991587;28;20061;-82
2022/07/27 03:14:09;;;;;;;4.65;2.40;;;;;;;11.19;84.72;101796.91;5007120;28;20045;-82
2022/07/27 03:16:34;;;;;;;3.38;2.33;;;;;;;11.13;84.98;101791.84;5010588;28;20033;-82
2022/07/27 03:19:00;;;;;;;3.15;2.30;;;;;;;11.13;85.51;101794.50;4997381;28;20489;-82
2022/07/27 03:21:25;;;;;;;5.25;2.70;;;;;;;11.11;85.41;101796.34;5002311;28;20033;-82
2022/07/27 03:23:51;;;;;;;4.13;2.40;;;;;;;11.09;85.09;101798.22;5006313;28;20052;-82
2022/07/27 03:26:18;;;;;;;4.70;2.67;;;;;;;11.06;85.71;101793.00;5000443;28;20088;-82
2022/07/27 03:28:43;;;;;;;4.72;2.45;;;;;;;11.05;85.05;101796.59;5004009;28;20195;-82
2022/07/27 03:31:08;;;;;;;2.95;2.22;;;;;;;11.01;85.66;101800.28;5002513;28;20112;-82
2022/07/27 03:33:34;;;;;;;5.38;2.33;;;;;;;10.98;85.46;101802.13;4998089;28;20058;-83
2022/07/27 03:36:00;;;;;;;2.92;2.25;;;;;;;10.94;85.56;101799.63;5014796;28;20715;-82
2022/07/27 03:38:25;;;;;;;3.70;2.45;;;;;;;10.93;86.04;101801.44;4996278;28;20037;-82
2022/07/27 03:40:51;;;;;;;5.68;3.17;;;;;;;10.97;86.49;101804.88;5004369;28;20034;-82
2022/07/27 03:43:16;;;;;;;5.95;2.90;;;;;;;10.95;86.55;101796.94;5004465;28;20105;-82
2022/07/27 03:45:41;;;;;;;5.53;3.08;;;;;;;10.90;86.65;101798.88;4998042;28;20022;-82
2022/07/27 03:48:07;;;;;;;5.97;2.78;;;;;;;10.96;86.32;101803.13;5001482;28;20029;-83
2022/07/27 03:50:32;;;;;;;6.50;3.30;;;;;;;10.94;86.27;101799.63;4997601;28;20068;-82
2022/07/27 03:52:57;;;;;;;5.95;2.90;;;;;;;10.90;86.40;101798.88;5004768;28;20030;-81
2022/07/27 03:55:23;;;;;;;6.15;3.25;;;;;;;10.90;86.72;101800.69;5000482;28;20029;-83
2022/07/27 03:57:49;;;;;;;4.53;2.55;;;;;;;10.88;87.02;101803.41;5003722;28;20531;-83
2022/07/27 04:00:15;;;;;;;7.57;3.97;;;;;;;10.90;86.93;101809.53;5002994;28;20041;-83
2022/07/27 04:02:41;;;;;;;6.65;3.28;;;;;;;10.88;86.82;101805.22;4998318;28;20034;-83
2022/07/27 04:05:07;;;;;;;3.90;3.08;;;;;;;10.88;86.98;101811.41;5001325;28;20037;-83
2022/07/27 04:07:33;;;;;;;6.20;2.80;;;;;;;10.82;87.34;101805.41;4990711;28;20570;-81
2022/07/27 04:09:58;;;;;;;10.40;5.78;;;;;;;10.84;87.12;101811.56;4995851;28;20183;-81
2022/07/27 04:12:23;;;;;;;12.25;6.97;;;;;;;10.84;87.26;101807.09;5001617;28;20044;-81
2022/07/27 04:14:50;;;;;;;10.02;6.07;;;;;;;10.83;87.28;101805.38;5001724;28;20214;-82
2022/07/27 04:17:15;;;;;;;6.22;3.45;;;;;;;10.82;87.92;101800.94;4993554;28;20110;-81
2022/07/27 04:19:40;;;;;;;7.40;3.90;;;;;;;10.84;87.81;101799.13;4993514;28;20463;-82
2022/07/27 04:22:06;;;;;;;5.75;3.58;;;;;;;10.85;87.82;101795.53;5003924;28;20032;-81
2022/07/27 04:24:31;;;;;;;3.80;2.80;;;;;;;10.86;87.46;101799.91;4994418;28;20022;-82
2022/07/27 04:26:56;;;;;;;8.20;3.42;;;;;;;10.88;87.76;101799.88;4989975;28;20052;-82
2022/07/27 04:29:22;;;;;;;7.25;3.55;;;;;;;10.92;87.77;101806.84;5005022;28;20095;-81
2022/07/27 04:31:47;;;;;;;4.75;3.30;;;;;;;10.88;87.83;101792.75;4996347;28;20033;-82
2022/07/27 04:34:13;;;;;;;7.75;4.03;;;;;;;10.91;87.61;101800.66;5005090;28;20033;-82
2022/07/27 04:36:38;;;;;;;6.97;3.65;;;;;;;10.91;88.20;101803.31;5014924;28;20380;-82
2022/07/27 04:39:03;;;;;;;4.97;3.08;;;;;;;10.93;88.48;101804.09;5005361;28;20026;-82
2022/07/27 04:41:29;;;;;;;9.85;3.88;;;;;;;10.98;88.72;101803.94;5002449;28;20026;-82
2022/07/27 04:43:54;;;;;;;9.25;3.50;;;;;;;11.03;88.43;101812.59;4987877;28;20561;-82
2022/07/27 04:46:20;;;;;;;4.03;3.28;;;;;;;11.05;88.49;101808.09;5006337;28;20053;-81
2022/07/27 04:48:45;;;;;;;7.75;3.53;;;;;;;11.11;88.81;101817.66;4998422;28;20099;-82
2022/07/27 04:51:14;;;;;;;7.07;3.78;;;;;;;11.16;88.77;101815.69;5007199;28;20243;-82
2022/07/27 04:53:39;;;;;;;8.13;3.90;;;;;;;11.23;89.13;101820.72;4997652;28;20034;-81
2022/07/27 04:56:05;;;;;;;6.18;3.72;;;;;;;11.33;88.21;101829.25;5002314;28;20379;-81
2022/07/27 04:58:31;;;;;;;7.63;4.60;;;;;;;11.40;88.61;101830.75;4997355;28;20117;-82
2022/07/27 05:00:56;;;;;;;7.43;4.22;;;;;;;11.46;88.51;101827.00;4998237;28;20034;-82
2022/07/27 05:03:21;;;;;;;7.70;4.57;;;;;;;11.53;88.46;101823.13;5003389;28;20025;-81
2022/07/27 05:05:47;;;;;;;11.20;5.60;;;;;;;11.63;88.00;101827.19;5005955;28;20028;-82
2022/07/27 05:08:12;;;;;;;9.60;4.65;;;;;;;11.71;87.63;101827.75;5011223;28;20057;-82
2022/07/27 05:10:37;;;;;;;8.13;4.80;;;;;;;11.80;87.21;101823.84;5014555;28;20026;-82
2022/07/27 05:13:02;;;;;;;9.15;5.20;;;;;;;11.88;87.17;101832.44;5002137;28;20123;-81
2022/07/27 05:15:28;;;;;;;10.68;5.05;;;;;;;11.93;86.70;101826.91;4991057;28;20463;-81
2022/07/27 05:17:53;;;;;;;8.45;4.97;;;;;;;11.99;86.42;101834.66;5001649;28;20167;-82
2022/07/27 05:20:19;;;;;;;9.05;4.65;;;;;;;12.08;86.09;101836.06;5008272;28;20367;-83
2022/07/27 05:22:44;;;;;;;6.82;4.40;;;;;;;12.12;86.37;101832.34;5000572;28;20120;-81
2022/07/27 05:25:10;;;;;;;7.97;4.35;;;;;;;12.22;85.86;101841.72;4991530;28;20031;-82
2022/07/27 05:27:36;;;;;;;8.02;5.00;;;;;;;12.29;85.95;101837.88;5003072;28;20553;-81
2022/07/27 05:30:05;;;;;;;7.70;4.25;;;;;;;12.37;85.32;101843.75;4991250;28;20026;-82
2022/07/27 05:32:30;;;;;;;7.57;4.30;;;;;;;12.46;84.61;101838.03;5000015;28;20138;-81
2022/07/27 05:34:56;;;;;;;7.38;3.83;;;;;;;12.56;84.67;101837.63;4992915;28;20432;-81
2022/07/27 05:37:21;;;;;;;7.80;4.07;;;;;;;12.66;84.01;101837.13;4999266;28;20030;-82
2022/07/27 05:39:46;;;;;;;8.13;3.50;;;;;;;12.77;83.61;101850.03;5012633;28;20045;-83
2022/07/27 05:42:11;;;;;;;8.45;4.50;;;;;;;12.89;84.02;101837.94;5003395;28;20117;-82
2022/07/27 05:44:37;;;;;;;10.93;3.88;;;;;;;13.01;83.20;101839.19;5004708;28;20030;-82
2022/07/27 05:47:02;;;;;;;5.82;3.85;;;;;;;13.15;82.68;101839.44;5004440;28;20029;-81
2022/07/27 05:49:27;;;;;;;7.75;3.40;;;;;;;13.33;81.94;101843.94;5003238;28;20026;-82
2022/07/27 05:51:53;;;;;;;9.45;3.33;;;;;;;13.49;81.07;101851.28;5002501;28;20042;-83
2022/07/27 05:54:18;;;;;;;12.18;3.72;;;;;;;13.70;79.59;101858.28;4991509;28;20443;-82
2022/07/27 05:56:44;;;;;;;6.57;3.38;;;;;;;13.89;79.45;101843.06;5004927;28;20030;-82
2022/07/27 05:59:10;;;;;;;18.13;4.82;;;;;;;14.11;77.99;101855.41;4998328;28;20108;-81
2022/07/27 06:01:36;;;;;;;9.00;3.00;;;;;;;14.33;76.71;101860.53;4995952;28;20054;-82
2022/07/27 06:04:02;;;;;;;7.72;3.17;;;;;;;14.54;75.06;101850.56;5009788;28;20049;-82
2022/07/27 06:09:12;;;;;;;;;;;;;;;14.93;75.85;101853.88;4997077;28;20386;-82
2022/07/27 06:11:37;;;;;;;5.75;2.42;;;;;;;15.12;72.49;101858.25;4988810;28;19921;-82
2022/07/27 06:14:03;;;;;;;4.75;2.13;;;;;;;15.32;71.52;101863.41;5003678;28;20030;-82
2022/07/27 06:16:28;;;;;;;15.85;2.80;;;;;;;15.47;69.45;101860.81;5002421;28;20096;-82
2022/07/27 06:18:53;;;;;;;6.90;1.75;;;;;;;15.51;68.62;101851.63;5007199;28;20096;-83
2022/07/27 06:21:19;;;;;;;6.32;1.83;;;;;;;15.71;68.53;101861.28;4999835;28;20498;-82
2022/07/27 06:23:47;;;;;;;5.78;2.00;;;;;;;15.91;68.21;101866.41;4996378;28;20053;-81
2022/07/27 06:26:12;;;;;;;6.55;1.85;;;;;;;15.99;67.71;101861.47;5000426;28;20038;-82
2022/07/27 06:28:37;;;;;;;7.30;1.65;;;;;;;16.09;65.46;101856.41;4994312;28;20028;-81
2022/07/27 06:31:03;;;;;;;4.80;1.58;;;;;;;16.08;64.95;101865.44;5008152;28;20323;-81
2022/07/27 06:33:29;;;;;;;6.70;2.00;;;;;;;16.15;65.79;101866.81;4994422;28;20056;-80
2022/07/27 06:35:56;;;;;;;3.60;1.52;;;;;;;16.26;65.13;101869.75;4989707;28;20033;-81
2022/07/27 06:38:23;;;;;;;5.75;1.65;;;;;;;16.50;63.83;101855.81;5003984;28;20042;-82
2022/07/27 06:40:51;;;;;;;3.67;1.48;;;;;;;16.61;64.54;101861.44;4994914;28;20022;-83
2022/07/27 06:43:22;;;;;;;6.10;1.50;;;;;;;16.80;64.40;101858.50;5003302;28;20113;-82
2022/07/27 06:45:48;;;;;;;3.53;1.23;;;;;;;16.97;63.08;101865.53;4997388;28;20033;-82
2022/07/27 06:48:14;;;;;;;4.07;1.30;;;;;;;17.02;62.38;101863.47;5014796;28;20029;-82
2022/07/27 06:50:39;;;;;;;4.30;1.95;;;;;;;16.97;62.01;101863.75;5008226;28;20113;-83
2022/07/27 06:53:05;;;;;;;3.05;1.80;;;;;;;17.02;61.81;101868.84;5004343;28;20021;-83
2022/07/27 06:55:30;;;;;;;3.22;1.48;;;;;;;17.25;62.29;101872.78;4998996;28;20111;-83
2022/07/27 06:57:55;;;;;;;5.68;1.77;;;;;;;17.22;60.91;101870.25;5010064;28;20462;-82
2022/07/27 07:00:20;;;;;;;4.07;1.60;;;;;;;17.29;61.76;101875.16;4990015;28;20066;-82
2022/07/27 07:02:51;;;;;;;4.32;1.60;;;;;;;17.22;60.99;101886.41;4996630;28;20456;-82
2022/07/27 07:05:16;;;;;;;12.68;2.25;;;;;;;17.17;61.78;101873.25;4995669;28;20511;-82
2022/07/27 07:07:41;;;;;;;4.97;2.08;;;;;;;17.38;61.25;101881.81;4999367;28;20285;-81
2022/07/27 07:10:07;;;;;;;5.13;1.48;;;;;;;17.65;61.73;101887.28;4995672;28;20026;-82
2022/07/27 07:12:33;;;;;;;6.38;1.45;;;;;;;17.74;59.01;101881.31;5010083;28;20117;-83
2022/07/27 07:14:58;;;;;;;7.03;1.55;;;;;;;17.87;59.13;101884.94;5006051;28;20029;-81
2022/07/27 07:17:23;;;;;;;9.93;1.40;;;;;;;18.17;60.58;101886.59;4994631;28;20030;-82
2022/07/27 07:19:48;;;;;;;4.85;1.27;;;;;;;18.29;57.96;101871.44;5017381;28;20034;-83
2022/07/27 07:22:14;;;;;;;8.23;1.60;;;;;;;18.50;56.82;101878.06;4997964;28;20027;-82
2022/07/27 07:24:39;;;;;;;12.30;2.05;;;;;;;18.54;56.12;101889.53;4999507;28;20408;-82
2022/07/27 07:27:04;;;;;;;2.95;1.00;;;;;;;18.65;55.93;101876.19;5003600;28;20033;-82
2022/07/27 07:29:30;;;;;;;4.45;1.30;;;;;;;18.92;56.53;101878.81;4998244;28;20629;-82
2022/07/27 07:31:55;;;;;;;5.55;1.35;;;;;;;19.28;54.73;101885.31;4993258;28;20336;-81
2022/07/27 07:34:21;;;;;;;2.20;1.08;;;;;;;19.48;53.08;101887.47;5003008;28;20026;-81
2022/07/27 07:36:46;;;;;;;8.50;2.42;;;;;;;19.76;54.49;101886.31;5007493;28;20030;-81
2022/07/27 07:39:12;;;;;;;8.43;1.52;;;;;;;20.25;52.91;101898.06;5007403;28;20026;-82
2022/07/27 07:41:37;;;;;;;5.45;1.60;;;;;;;20.27;51.46;101894.25;4989150;28;20546;-82
2022/07/27 07:44:03;;;;;;;4.90;1.67;;;;;;;20.16;51.07;101894.22;4990888;28;20031;-82
2022/07/27 07:46:28;;;;;;;4.43;1.40;;;;;;;20.40;49.73;101902.31;5004382;28;20061;-83
2022/07/27 07:48:53;;;;;;;4.57;1.40;;;;;;;20.86;49.64;101893.41;4993331;28;20030;-81
2022/07/27 07:51:18;;;;;;;4.07;1.40;;;;;;;21.39;48.13;101885.63;4999575;28;20100;-83
2022/07/27 07:53:44;;;;;;;4.22;1.30;;;;;;;21.82;47.68;101898.41;4995907;28;20051;-82
2022/07/27 07:56:09;;;;;;;11.15;1.98;;;;;;;22.07;45.62;101891.81;4999694;28;20109;-82
2022/07/27 07:58:34;;;;;;;7.53;1.95;;;;;;;22.22;44.23;101892.44;4991400;28;20402;-83
2022/07/27 08:01:00;;;;;;;103.03;14.20;;;;;;;22.09;43.57;101895.28;5006512;28;20053;-82
2022/07/27 08:03:25;;;;;;;9.10;2.20;;;;;;;22.31;43.50;101894.38;4992363;28;20034;-82
2022/07/27 08:05:51;;;;;;;4.30;1.27;;;;;;;22.72;43.48;101890.84;4999738;28;20096;-82
2022/07/27 08:08:16;;;;;;;2.35;1.23;;;;;;;22.92;41.43;101896.47;4991228;28;20093;-83
2022/07/27 08:10:41;;;;;;;4.20;1.50;;;;;;;23.39;40.88;101907.72;4991298;28;20108;-81
2022/07/27 08:13:07;;;;;;;3.72;1.20;;;;;;;23.49;40.93;101904.06;4990985;28;20142;-83
2022/07/27 08:15:32;;;;;;;2.40;1.00;;;;;;;22.92;41.09;101905.47;4991315;28;20026;-82
2022/07/27 08:17:58;;;;;;;2.55;1.00;;;;;;;22.62;41.05;101901.66;5004571;28;20077;-82
2022/07/27 08:20:26;;;;;;;3.70;1.05;;;;;;;23.31;40.84;101916.56;4992829;28;20046;-82
2022/07/27 08:22:52;;;;;;;2.95;1.08;;;;;;;24.03;38.10;101908.25;4997614;28;20024;-82
2022/07/27 08:25:17;;;;;;;3.05;0.80;;;;;;;25.16;36.77;101913.19;4991607;28;21541;-81
2022/07/27 08:27:42;;;;;;;1.08;0.80;;;;;;;25.75;35.23;101911.09;5003393;28;20033;-81
2022/07/27 08:30:09;;;;;;;2.50;0.68;;;;;;;26.01;32.59;101900.38;4999755;28;20026;-81
2022/07/27 08:32:57;;;;;;;3.60;0.70;;;;;;;25.87;32.65;101901.72;4999383;28;20048;-82
2022/07/27 08:35:23;;;;;;;3.15;1.15;;;;;;;25.74;33.68;101909.38;4994618;28;20229;-83
2022/07/27 08:37:48;;;;;;;2.45;1.10;;;;;;;25.93;33.91;101903.84;5004120;28;20033;-82
2022/07/27 08:40:14;;;;;;;3.63;1.27;;;;;;;26.75;33.14;101896.50;5000262;28;20038;-82
2022/07/27 08:42:41;;;;;;;2.55;0.93;;;;;;;26.76;31.58;101890.88;5001006;28;20095;-82
2022/07/27 08:45:09;;;;;;;1.67;0.80;;;;;;;27.29;31.70;101902.69;5005679;28;20112;-82
2022/07/27 08:47:37;;;;;;;3.65;1.00;;;;;;;27.83;30.86;101899.75;5003188;28;20030;-82
2022/07/27 08:50:03;;;;;;;3.90;0.95;;;;;;;27.89;29.07;101896.38;5005298;28;20427;-81
2022/07/27 08:52:28;;;;;;;2.50;0.80;;;;;;;28.05;30.32;101899.16;5009734;28;20125;-82
2022/07/27 08:54:54;;;;;;;2.30;0.90;;;;;;;28.21;29.33;101893.69;5006328;28;20271;-82
2022/07/27 08:57:20;;;;;;;4.47;1.02;;;;;;;28.09;29.79;101889.56;5004435;28;20061;-81
2022/07/27 08:59:45;;;;;;;2.75;0.80;;;;;;;28.10;29.70;101904.97;5004423;28;20055;-83
2022/07/27 09:02:12;;;;;;;2.75;0.90;;;;;;;27.85;29.38;101890.38;4994312;28;20036;-82
2022/07/27 09:04:41;;;;;;;4.20;1.00;;;;;;;27.74;28.61;101910.66;4992157;28;20054;-81
2022/07/27 09:07:06;;;;;;;2.22;0.80;;;;;;;27.74;28.28;101904.34;5009270;28;20026;-81
2022/07/27 09:09:45;;;;;;;3.05;0.90;;;;;;;28.62;29.84;101901.13;5006821;28;20434;-83
2022/07/27 09:12:11;;;;;;;2.15;1.05;;;;;;;28.88;27.48;101899.06;4993400;28;20132;-83
2022/07/27 09:14:38;;;;;;;1.50;0.80;;;;;;;29.50;26.42;101898.44;4994677;28;20468;-82
2022/07/27 09:17:23;;;;;;;4.07;1.05;;;;;;;29.71;27.86;101903.34;5008610;28;20092;-83
2022/07/27 09:19:59;;;;;;;3.75;0.93;;;;;;;30.09;26.45;101914.47;5000459;28;20133;-84
2022/07/27 09:22:39;;;;;;;2.65;0.88;;;;;;;29.86;27.26;101919.94;5006023;28;20030;-86
2022/07/27 09:25:05;;;;;;;4.50;1.17;;;;;;;30.02;26.67;101906.97;4998898;28;20119;-81
2022/07/27 09:27:31;;;;;;;3.95;0.80;;;;;;;30.52;25.17;101916.63;5004436;28;20493;-81
2022/07/27 09:30:09;;;;;;;3.33;0.90;;;;;;;30.70;25.97;101915.47;5007430;28;20120;-80
2022/07/27 09:32:35;;;;;;;3.25;1.00;;;;;;;29.35;24.73;101919.41;5000614;28;20064;-81
2022/07/27 09:35:19;;;;;;;4.55;0.85;;;;;;;28.83;26.31;101917.06;4998119;28;20026;-81
2022/07/27 09:37:45;;;;;;;2.25;0.80;;;;;;;27.46;27.02;101911.84;5000434;28;20026;-81
2022/07/27 09:40:15;;;;;;;3.80;1.30;;;;;;;26.02;30.31;101915.72;5006417;28;20029;-80
2022/07/27 09:42:41;;;;;;;3.28;1.00;;;;;;;24.58;31.40;101908.66;5001523;28;20034;-81
2022/07/27 09:45:28;;;;;;;3.38;1.35;;;;;;;24.12;33.52;101912.03;5002316;28;20478;-82
2022/07/27 09:48:09;;;;;;;2.05;0.80;;;;;;;23.67;34.59;101911.63;4997057;28;20261;-82
2022/07/27 09:50:37;;;;;;;2.95;0.82;;;;;;;23.44;35.23;101921.75;4991652;28;20046;-82
2022/07/27 09:53:21;;;;;;;3.63;0.90;;;;;;;23.00;34.96;101910.25;4993393;28;20030;-82
2022/07/27 09:56:00;;;;;;;5.25;1.05;;;;;;;22.65;35.76;101908.66;5003283;28;20025;-82
2022/07/27 09:58:37;;;;;;;4.53;1.55;;;;;;;22.48;36.23;101912.78;5001720;28;20042;-83
2022/07/27 10:01:02;;;;;;;9.07;3.85;;;;;;;22.25;35.47;101906.59;5007233;28;20491;-82
2022/07/27 10:03:28;;;;;;;1.50;0.80;;;;;;;22.13;35.96;101910.34;5004342;28;20045;-81
2022/07/27 10:05:54;;;;;;;1.65;0.88;;;;;;;22.32;35.00;101913.25;4994764;28;20058;-82
2022/07/27 10:08:19;;;;;;;3.35;1.00;;;;;;;23.11;34.79;101902.84;4995072;28;20056;-82
2022/07/27 10:10:45;;;;;;;2.10;0.80;;;;;;;25.92;30.21;101898.53;4998216;28;20030;-81
2022/07/27 10:13:10;;;;;;;2.97;1.00;;;;;;;28.75;27.45;101901.47;5001909;28;20279;-82
2022/07/27 10:15:39;;;;;;;1.63;0.82;;;;;;;30.19;24.51;101896.78;5001434;28;20026;-82
2022/07/27 10:18:11;;;;;;;3.33;0.80;;;;;;;29.31;25.61;101907.94;5002399;28;20041;-82
2022/07/27 10:20:41;;;;;;;2.80;1.00;;;;;;;26.90;27.54;101910.44;4995412;28;20117;-82
2022/07/27 10:23:07;;;;;;;2.80;0.80;;;;;;;24.83;30.53;101912.66;5004405;28;20026;-82
2022/07/27 10:25:33;;;;;;;3.78;1.25;;;;;;;23.35;33.54;101905.28;5004113;28;20030;-82
2022/07/27 10:28:15;;;;;;;8.70;4.30;;;;;;;22.90;36.29;101909.25;5002534;28;20029;-83
2022/07/27 10:30:40;;;;;;;4.82;1.50;;;;;;;22.51;36.14;101898.13;4996331;28;20471;-81
2022/07/27 10:33:41;;;;;;;5.28;1.10;;;;;;;22.27;36.04;101899.19;4994917;28;20032;-82
2022/07/27 10:36:14;;;;;;;3.38;0.95;;;;;;;21.88;37.73;101908.75;5000176;28;20048;-81
2022/07/27 10:38:45;;;;;;;4.18;1.33;;;;;;;21.81;36.79;101902.09;5005272;28;20385;-82
2022/07/27 10:41:39;;;;;;;3.75;1.10;;;;;;;22.02;37.44;101899.47;4996239;28;20030;-81
2022/07/27 10:44:13;;;;;;;2.72;1.20;;;;;;;22.00;37.04;101896.03;4976049;28;20038;-81
2022/07/27 10:46:50;;;;;;;5.25;3.20;;;;;;;22.16;35.71;101892.97;5007473;28;20034;-80
2022/07/27 10:49:19;;;;;;;3.20;1.13;;;;;;;25.56;32.31;101892.97;5009215;28;20018;-81
2022/07/27 10:51:44;;;;;;;2.80;0.80;;;;;;;28.35;26.47;101885.84;5011600;28;20136;-80
2022/07/27 10:54:26;;;;;;;2.83;1.00;;;;;;;29.08;27.20;101879.53;5009126;28;20520;-81
2022/07/27 10:56:54;;;;;;;2.50;1.00;;;;;;;28.02;27.37;101885.78;4990644;28;20062;-81
2022/07/27 10:59:40;;;;;;;4.10;0.90;;;;;;;26.81;29.45;101876.75;4997224;28;20069;-81
2022/07/27 11:02:08;;;;;;;3.50;1.10;;;;;;;25.62;30.57;101883.31;5004320;28;20130;-82
2022/07/27 11:04:41;;;;;;;1.63;0.77;;;;;;;24.93;30.65;101871.78;5005660;28;20038;-81
2022/07/27 11:07:07;;;;;;;2.78;0.90;;;;;;;24.27;31.36;101882.53;5002091;28;20033;-81
2022/07/27 11:09:36;;;;;;;2.80;1.10;;;;;;;23.91;31.92;101882.22;4990006;28;20030;-82
2022/07/27 11:12:06;;;;;;;1.20;0.90;;;;;;;25.09;31.32;101880.22;4993567;28;20037;-82
2022/07/27 11:14:49;;;;;;;3.30;0.90;;;;;;;27.90;29.16;101867.97;4995074;28;20058;-81
2022/07/27 11:17:21;;;;;;;2.85;1.00;;;;;;;30.88;23.78;101869.28;4991780;28;20377;-82
2022/07/27 11:19:57;;;;;;;1.98;1.02;;;;;;;32.97;22.14;101863.97;4997243;28;20061;-81
2022/07/27 11:22:35;;;;;;;4.97;1.40;;;;;;;34.67;20.96;101863.16;4994241;28;20100;-81
2022/07/27 11:25:01;;;;;;;1.92;1.13;;;;;;;35.55;19.19;101873.91;4997765;28;20037;-81
2022/07/27 11:27:27;;;;;;;3.28;1.20;;;;;;;36.76;17.62;101869.34;4998155;28;20034;-81
2022/07/27 11:29:53;;;;;;;3.42;1.20;;;;;;;37.39;17.19;101869.13;4987758;28;20108;-80